createdAt,value
2019-05-13T00:00:27.118Z,6.48
2019-05-13T00:01:24.174Z,6.42
2019-05-13T00:02:21.190Z,6.42
2019-05-13T00:03:18.220Z,6.40
2019-05-13T00:04:15.168Z,6.40
2019-05-13T00:05:14.447Z,6.38
2019-05-13T00:06:09.338Z,6.38
2019-05-13T00:07:06.271Z,6.38
2019-05-13T00:08:03.684Z,6.38
2019-05-13T00:09:00.290Z,6.42
2019-05-13T00:09:57.279Z,6.40
2019-05-13T00:10:54.374Z,6.40
2019-05-13T00:11:51.252Z,6.38
2019-05-13T00:12:48.301Z,6.40
2019-05-13T00:13:45.411Z,6.40
2019-05-13T00:14:43.407Z,6.40
2019-05-13T00:15:39.320Z,6.38
2019-05-13T00:16:36.356Z,6.34
2019-05-13T00:17:33.871Z,6.34
2019-05-13T00:18:30.315Z,6.32
2019-05-13T00:19:27.434Z,6.30
2019-05-13T00:20:24.389Z,6.25
2019-05-13T00:21:23.233Z,6.21
2019-05-13T00:22:18.353Z,6.17
2019-05-13T00:23:15.391Z,6.15
2019-05-13T00:24:13.798Z,6.13
2019-05-13T00:25:14.547Z,6.11
2019-05-13T00:26:06.377Z,6.11
2019-05-13T00:27:04.000Z,6.13
2019-05-13T00:28:00.480Z,6.11
2019-05-13T00:28:57.417Z,6.09
2019-05-13T00:29:54.542Z,6.05
2019-05-13T00:30:51.486Z,6.01
2019-05-13T00:31:48.488Z,6.00
2019-05-13T00:32:45.466Z,5.98
2019-05-13T00:33:44.444Z,5.98
2019-05-13T00:34:39.555Z,5.96
2019-05-13T00:35:36.476Z,5.94
2019-05-13T00:36:33.859Z,5.90
2019-05-13T00:37:30.574Z,5.90
2019-05-13T00:38:27.581Z,5.90
2019-05-13T00:39:24.721Z,5.94
2019-05-13T00:40:23.930Z,5.94
2019-05-13T00:41:18.594Z,5.94
2019-05-13T00:42:15.548Z,5.94
2019-05-13T00:43:14.246Z,5.94
2019-05-13T00:44:09.615Z,5.94
2019-05-13T00:45:06.771Z,5.94
2019-05-13T00:46:03.991Z,5.92
2019-05-13T00:47:00.642Z,5.94
2019-05-13T00:47:57.680Z,5.92
2019-05-13T00:48:54.689Z,5.92
2019-05-13T00:49:53.729Z,5.92
2019-05-13T00:50:48.692Z,5.92
2019-05-13T00:51:45.735Z,5.94
2019-05-13T00:52:44.853Z,5.96
2019-05-13T00:53:39.667Z,5.94
2019-05-13T00:54:36.752Z,5.92
2019-05-13T00:55:34.302Z,5.92
2019-05-13T00:56:30.678Z,5.92
2019-05-13T00:57:27.731Z,5.94
2019-05-13T00:58:24.787Z,5.98
2019-05-13T00:59:24.074Z,5.98
2019-05-13T01:00:18.744Z,6.01
2019-05-13T01:01:15.768Z,6.01
2019-05-13T01:02:13.929Z,6.00
2019-05-13T01:03:09.848Z,6.01
2019-05-13T01:04:06.783Z,5.98
2019-05-13T01:05:04.315Z,5.94
2019-05-13T01:06:00.857Z,5.92
2019-05-13T01:06:57.814Z,5.90
2019-05-13T01:07:54.824Z,5.86
2019-05-13T01:08:53.597Z,5.86
2019-05-13T01:09:48.835Z,5.86
2019-05-13T01:10:45.838Z,5.86
2019-05-13T01:11:43.788Z,5.84
2019-05-13T01:12:39.942Z,5.86
2019-05-13T01:13:36.854Z,5.84
2019-05-13T01:14:34.329Z,5.82
2019-05-13T01:15:30.942Z,5.84
2019-05-13T01:16:27.958Z,5.86
2019-05-13T01:17:24.911Z,5.86
2019-05-13T01:18:23.405Z,5.84
2019-05-13T01:19:18.969Z,5.82
2019-05-13T01:20:16.011Z,5.82
2019-05-13T01:21:13.388Z,5.82
2019-05-13T01:22:10.005Z,5.82
2019-05-13T01:23:07.029Z,5.80
2019-05-13T01:24:04.113Z,5.79
2019-05-13T01:25:03.747Z,5.78
2019-05-13T01:25:58.067Z,5.77
2019-05-13T01:26:55.062Z,5.73
2019-05-13T01:27:53.754Z,5.76
2019-05-13T01:28:49.058Z,5.75
2019-05-13T01:29:46.079Z,5.75
2019-05-13T01:30:43.801Z,5.73
2019-05-13T01:31:40.038Z,5.75
2019-05-13T01:32:37.090Z,5.77
2019-05-13T01:33:35.082Z,5.80
2019-05-13T01:34:31.158Z,5.82
2019-05-13T01:35:28.102Z,5.82
2019-05-13T01:36:25.142Z,5.78
2019-05-13T01:37:24.781Z,5.76
2019-05-13T01:38:19.111Z,5.75
2019-05-13T01:39:16.162Z,5.71
2019-05-13T01:40:13.537Z,5.69
2019-05-13T01:41:10.221Z,5.69
2019-05-13T01:42:07.171Z,5.69
2019-05-13T01:43:04.230Z,5.69
2019-05-13T01:44:03.864Z,5.67
2019-05-13T01:44:58.298Z,5.67
2019-05-13T01:45:55.207Z,5.67
2019-05-13T01:46:53.747Z,5.67
2019-05-13T01:47:49.285Z,5.69
2019-05-13T01:48:46.219Z,5.67
2019-05-13T01:49:44.034Z,5.61
2019-05-13T01:50:40.291Z,5.57
2019-05-13T01:51:37.342Z,5.53
2019-05-13T01:52:34.454Z,5.51
2019-05-13T01:53:33.441Z,5.50
2019-05-13T01:54:28.355Z,5.48
2019-05-13T01:55:25.380Z,5.46
2019-05-13T01:56:23.535Z,5.44
2019-05-13T01:57:19.363Z,5.42
2019-05-13T01:58:16.379Z,5.42
2019-05-13T01:59:15.240Z,5.40
2019-05-13T02:00:10.389Z,5.38
2019-05-13T02:01:07.439Z,5.36
2019-05-13T02:02:04.479Z,5.34
2019-05-13T02:03:03.654Z,5.38
2019-05-13T02:03:58.495Z,5.38
2019-05-13T02:04:55.446Z,5.40
2019-05-13T02:05:54.443Z,5.42
2019-05-13T02:06:49.415Z,5.40
2019-05-13T02:07:57.012Z,5.42
2019-05-13T02:08:43.989Z,5.44
2019-05-13T02:09:40.458Z,5.44
2019-05-13T02:10:37.454Z,5.38
2019-05-13T02:11:34.492Z,5.40
2019-05-13T02:12:33.886Z,5.40
2019-05-13T02:13:28.476Z,5.38
2019-05-13T02:14:25.530Z,5.36
2019-05-13T02:15:23.267Z,5.34
2019-05-13T02:16:19.575Z,5.32
2019-05-13T02:17:16.534Z,5.32
2019-05-13T02:18:13.572Z,5.32
2019-05-13T02:19:10.610Z,5.34
2019-05-13T02:20:07.623Z,5.34
2019-05-13T02:21:05.618Z,5.36
2019-05-13T02:22:03.994Z,5.34
2019-05-13T02:22:58.648Z,5.34
2019-05-13T02:23:55.581Z,5.30
2019-05-13T02:24:53.517Z,5.26
2019-05-13T02:25:49.656Z,5.23
2019-05-13T02:26:46.686Z,5.23
2019-05-13T02:27:44.227Z,5.25
2019-05-13T02:28:40.653Z,5.25
2019-05-13T02:29:37.714Z,5.23
2019-05-13T02:30:35.156Z,5.21
2019-05-13T02:31:41.415Z,5.21
2019-05-13T02:32:32.640Z,5.19
2019-05-13T02:33:25.762Z,5.17
2019-05-13T02:34:23.395Z,5.11
2019-05-13T02:35:22.988Z,5.09
2019-05-13T02:36:16.803Z,5.07
2019-05-13T02:37:13.807Z,5.07
2019-05-13T02:38:19.413Z,5.05
2019-05-13T02:39:07.784Z,5.05
2019-05-13T02:40:04.824Z,5.01
2019-05-13T02:41:02.803Z,4.98
2019-05-13T02:41:58.800Z,5.00
2019-05-13T02:42:55.845Z,5.01
2019-05-13T02:43:52.888Z,5.01
2019-05-13T02:44:52.979Z,5.00
2019-05-13T02:45:46.831Z,4.96
2019-05-13T02:46:44.495Z,4.94
2019-05-13T02:47:44.063Z,4.94
2019-05-13T02:48:37.853Z,4.92
2019-05-13T02:49:34.865Z,4.94
2019-05-13T02:50:33.898Z,4.98
2019-05-13T02:51:28.990Z,4.98
2019-05-13T02:52:25.880Z,5.01
2019-05-13T02:53:23.918Z,5.03
2019-05-13T02:54:22.726Z,5.01
2019-05-13T02:55:17.086Z,4.98
2019-05-13T02:56:13.919Z,4.94
2019-05-13T02:57:12.412Z,4.92
2019-05-13T02:58:08.006Z,4.90
2019-05-13T02:59:05.033Z,4.88
2019-05-13T03:00:04.159Z,4.88
2019-05-13T03:00:59.033Z,4.88
2019-05-13T03:01:56.051Z,4.84
2019-05-13T03:02:52.984Z,4.82
2019-05-13T03:03:52.903Z,4.82
2019-05-13T03:04:47.078Z,4.82
2019-05-13T03:05:44.131Z,4.82
2019-05-13T03:06:43.519Z,4.82
2019-05-13T03:07:38.117Z,4.80
2019-05-13T03:08:44.806Z,4.77
2019-05-13T03:09:32.696Z,4.75
2019-05-13T03:10:29.099Z,4.71
2019-05-13T03:11:26.125Z,4.69
2019-05-13T03:12:23.324Z,4.69
2019-05-13T03:13:23.172Z,4.65
2019-05-13T03:14:17.214Z,4.63
2019-05-13T03:15:14.180Z,4.61
2019-05-13T03:16:13.159Z,4.57
2019-05-13T03:17:08.145Z,4.55
2019-05-13T03:18:05.167Z,4.55
2019-05-13T03:19:02.987Z,4.55
2019-05-13T03:20:03.752Z,4.52
2019-05-13T03:20:56.204Z,4.48
2019-05-13T03:21:53.227Z,4.48
2019-05-13T03:22:52.575Z,4.46
2019-05-13T03:23:47.196Z,4.48
2019-05-13T03:24:44.275Z,4.46
2019-05-13T03:25:42.935Z,4.46
2019-05-13T03:26:38.236Z,4.44
2019-05-13T03:27:35.274Z,4.44
2019-05-13T03:28:33.702Z,4.46
2019-05-13T03:29:32.718Z,4.46
2019-05-13T03:30:26.500Z,4.46
2019-05-13T03:31:26.406Z,4.44
2019-05-13T03:32:25.655Z,4.44
2019-05-13T03:33:19.831Z,4.42
2019-05-13T03:34:16.072Z,4.42
2019-05-13T03:35:16.661Z,4.44
2019-05-13T03:36:08.852Z,4.48
2019-05-13T03:37:06.916Z,4.50
2019-05-13T03:38:03.290Z,4.48
2019-05-13T03:39:07.055Z,4.44
2019-05-13T03:39:56.470Z,4.44
2019-05-13T03:40:53.479Z,4.42
2019-05-13T03:41:52.815Z,4.40
2019-05-13T03:42:47.427Z,4.40
2019-05-13T03:43:44.469Z,4.40
2019-05-13T03:44:42.699Z,4.42
2019-05-13T03:45:38.462Z,4.46
2019-05-13T03:46:35.515Z,4.48
2019-05-13T03:47:32.922Z,4.51
2019-05-13T03:48:29.453Z,4.53
2019-05-13T03:49:26.621Z,4.53
2019-05-13T03:50:23.522Z,4.53
2019-05-13T03:51:22.193Z,4.53
2019-05-13T03:52:17.610Z,4.51
2019-05-13T03:53:14.533Z,4.52
2019-05-13T03:54:12.885Z,4.53
2019-05-13T03:55:08.620Z,4.53
2019-05-13T03:56:05.555Z,4.55
2019-05-13T03:57:03.583Z,4.57
2019-05-13T03:58:02.551Z,4.57
2019-05-13T03:58:56.681Z,4.59
2019-05-13T03:59:53.610Z,4.63
2019-05-13T04:00:51.860Z,4.65
2019-05-13T04:01:47.678Z,4.63
2019-05-13T04:02:44.605Z,4.65
2019-05-13T04:03:43.969Z,4.63
2019-05-13T04:04:38.681Z,4.63
2019-05-13T04:05:35.652Z,4.65
2019-05-13T04:06:32.748Z,4.65
2019-05-13T04:07:32.532Z,4.65
2019-05-13T04:08:26.734Z,4.69
2019-05-13T04:09:31.281Z,4.69
2019-05-13T04:10:22.945Z,4.69
2019-05-13T04:11:17.703Z,4.67
2019-05-13T04:12:14.767Z,4.67
2019-05-13T04:13:12.556Z,4.65
2019-05-13T04:14:12.152Z,4.63
2019-05-13T04:15:05.783Z,4.63
2019-05-13T04:16:03.914Z,4.63
2019-05-13T04:17:02.718Z,4.63
2019-05-13T04:17:56.788Z,4.63
2019-05-13T04:18:54.109Z,4.65
2019-05-13T04:19:52.949Z,4.65
2019-05-13T04:20:47.807Z,4.67
2019-05-13T04:21:44.861Z,4.67
2019-05-13T04:22:42.608Z,4.69
2019-05-13T04:23:42.335Z,4.73
2019-05-13T04:24:35.848Z,4.75
2019-05-13T04:25:32.903Z,4.75
2019-05-13T04:26:32.310Z,4.77
2019-05-13T04:27:26.945Z,4.79
2019-05-13T04:28:23.893Z,4.80
2019-05-13T04:29:23.385Z,4.80
2019-05-13T04:30:18.060Z,4.84
2019-05-13T04:31:14.926Z,4.84
2019-05-13T04:32:13.091Z,4.88
2019-05-13T04:33:08.978Z,4.90
2019-05-13T04:34:06.015Z,4.90
2019-05-13T04:35:04.045Z,4.90
2019-05-13T04:36:02.611Z,4.94
2019-05-13T04:36:57.042Z,4.96
2019-05-13T04:37:54.063Z,4.96
2019-05-13T04:38:52.811Z,4.96
2019-05-13T04:39:52.589Z,4.98
2019-05-13T04:40:45.107Z,4.98
2019-05-13T04:41:42.525Z,4.98
2019-05-13T04:42:42.482Z,5.00
2019-05-13T04:43:36.085Z,4.98
2019-05-13T04:44:33.121Z,4.98
2019-05-13T04:45:33.043Z,4.98
2019-05-13T04:46:27.184Z,5.01
2019-05-13T04:47:24.145Z,5.05
2019-05-13T04:48:22.826Z,5.09
2019-05-13T04:49:18.105Z,5.09
2019-05-13T04:50:15.156Z,5.09
2019-05-13T04:51:13.683Z,5.09
2019-05-13T04:52:09.162Z,5.09
2019-05-13T04:53:06.153Z,5.07
2019-05-13T04:54:03.311Z,5.09
2019-05-13T04:55:03.436Z,5.11
2019-05-13T04:55:57.170Z,5.11
2019-05-13T04:56:54.199Z,5.11
2019-05-13T04:57:53.246Z,5.15
2019-05-13T04:58:48.309Z,5.15
2019-05-13T04:59:45.213Z,5.15
2019-05-13T05:00:42.792Z,5.19
2019-05-13T05:01:52.215Z,5.19
2019-05-13T05:02:42.886Z,5.19
2019-05-13T05:03:40.979Z,5.23
2019-05-13T05:04:33.952Z,5.23
2019-05-13T05:05:27.353Z,5.25
2019-05-13T05:06:24.266Z,5.26
2019-05-13T05:07:22.209Z,5.26
2019-05-13T05:08:18.340Z,5.26
2019-05-13T05:09:15.382Z,5.30
2019-05-13T05:10:25.080Z,5.34
2019-05-13T05:11:12.971Z,5.36
2019-05-13T05:12:06.389Z,5.38
2019-05-13T05:13:03.521Z,5.38
2019-05-13T05:14:02.692Z,5.38
2019-05-13T05:14:57.399Z,5.40
2019-05-13T05:15:54.435Z,5.42
2019-05-13T05:16:52.291Z,5.44
2019-05-13T05:17:48.499Z,5.46
2019-05-13T05:18:45.465Z,5.46
2019-05-13T05:19:47.002Z,5.48
2019-05-13T05:20:41.481Z,5.51
2019-05-13T05:21:36.458Z,5.53
2019-05-13T05:22:33.519Z,5.55
2019-05-13T05:23:31.958Z,5.57
2019-05-13T05:24:27.467Z,5.59
2019-05-13T05:25:24.507Z,5.63
2019-05-13T05:26:22.085Z,5.67
2019-05-13T05:27:18.578Z,5.71
2019-05-13T05:28:15.522Z,5.73
2019-05-13T05:29:12.553Z,5.76
2019-05-13T05:30:11.361Z,5.80
2019-05-13T05:31:06.527Z,5.84
2019-05-13T05:32:03.575Z,5.86
2019-05-13T05:33:02.109Z,5.88
2019-05-13T05:33:57.556Z,5.92
2019-05-13T05:34:54.573Z,5.94
2019-05-13T05:35:52.117Z,5.96
2019-05-13T05:36:48.652Z,5.96
2019-05-13T05:37:45.588Z,5.98
2019-05-13T05:38:43.297Z,6.00
2019-05-13T05:39:41.893Z,6.03
2019-05-13T05:40:36.696Z,6.03
2019-05-13T05:41:33.628Z,6.09
2019-05-13T05:42:32.187Z,6.13
2019-05-13T05:43:27.741Z,6.19
2019-05-13T05:44:24.740Z,6.21
2019-05-13T05:45:22.071Z,6.26
2019-05-13T05:46:18.736Z,6.28
2019-05-13T05:47:15.775Z,6.30
2019-05-13T05:48:12.731Z,6.30
2019-05-13T05:49:12.543Z,6.32
2019-05-13T05:50:06.768Z,6.32
2019-05-13T05:51:03.807Z,6.32
2019-05-13T05:52:01.737Z,6.28
2019-05-13T05:52:57.787Z,6.32
2019-05-13T05:53:54.770Z,6.32
2019-05-13T05:54:51.845Z,6.34
2019-05-13T05:55:48.781Z,6.34
2019-05-13T05:56:45.913Z,6.36
2019-05-13T05:57:42.865Z,6.40
2019-05-13T05:58:41.888Z,6.44
2019-05-13T05:59:36.829Z,6.46
2019-05-13T06:00:33.872Z,6.48
2019-05-13T06:01:33.182Z,6.52
2019-05-13T06:02:27.852Z,6.55
2019-05-13T06:03:24.885Z,6.57
2019-05-13T06:04:22.177Z,6.61
2019-05-13T06:05:21.240Z,6.61
2019-05-13T06:06:15.926Z,6.61
2019-05-13T06:07:12.947Z,6.63
2019-05-13T06:08:11.410Z,6.63
2019-05-13T06:09:07.039Z,6.63
2019-05-13T06:10:03.935Z,6.65
2019-05-13T06:11:01.396Z,6.67
2019-05-13T06:11:58.054Z,6.73
2019-05-13T06:12:54.959Z,6.76
2019-05-13T06:13:54.705Z,6.78
2019-05-13T06:14:52.244Z,6.79
2019-05-13T06:15:46.059Z,6.80
2019-05-13T06:16:42.979Z,6.79
2019-05-13T06:17:41.277Z,6.80
2019-05-13T06:18:37.069Z,6.80
2019-05-13T06:19:34.094Z,6.84
2019-05-13T06:20:31.767Z,6.90
2019-05-13T06:21:28.085Z,6.98
2019-05-13T06:22:25.140Z,7.05
2019-05-13T06:23:22.313Z,7.09
2019-05-13T06:24:19.176Z,7.11
2019-05-13T06:25:16.132Z,7.17
2019-05-13T06:26:13.205Z,7.23
2019-05-13T06:27:11.858Z,7.30
2019-05-13T06:28:07.137Z,7.36
2019-05-13T06:29:04.269Z,7.40
2019-05-13T06:30:02.290Z,7.40
2019-05-13T06:30:58.149Z,7.36
2019-05-13T06:31:55.185Z,7.34
2019-05-13T06:32:52.596Z,7.32
2019-05-13T06:33:51.304Z,7.26
2019-05-13T06:34:46.308Z,7.19
2019-05-13T06:35:44.920Z,7.17
2019-05-13T06:36:41.826Z,7.15
2019-05-13T06:37:37.203Z,7.21
2019-05-13T06:38:34.368Z,7.30
2019-05-13T06:39:31.880Z,7.36
2019-05-13T06:40:28.222Z,7.46
2019-05-13T06:41:25.295Z,7.59
2019-05-13T06:42:22.408Z,7.69
2019-05-13T06:43:21.095Z,7.75
2019-05-13T06:44:16.351Z,7.84
2019-05-13T06:45:13.312Z,7.90
2019-05-13T06:46:12.366Z,7.96
2019-05-13T06:47:07.374Z,8.02
2019-05-13T06:48:04.416Z,8.07
2019-05-13T06:49:02.917Z,8.11
2019-05-13T06:49:58.987Z,8.14
2019-05-13T06:50:55.324Z,8.22
2019-05-13T06:51:52.884Z,8.30
2019-05-13T06:52:51.376Z,8.34
2019-05-13T06:53:46.443Z,8.40
2019-05-13T06:54:43.471Z,8.48
2019-05-13T06:55:41.801Z,8.53
2019-05-13T06:56:37.479Z,8.59
2019-05-13T06:57:34.519Z,8.68
2019-05-13T06:58:32.530Z,8.77
2019-05-13T06:59:28.491Z,8.88
2019-05-13T07:00:25.500Z,8.96
2019-05-13T07:01:22.527Z,9.00
2019-05-13T07:02:21.442Z,9.05
2019-05-13T07:03:16.591Z,9.14
2019-05-13T07:04:13.538Z,9.23
2019-05-13T07:05:12.015Z,9.35
2019-05-13T07:06:07.507Z,9.44
2019-05-13T07:07:16.777Z,9.52
2019-05-13T07:08:02.058Z,9.60
2019-05-13T07:08:58.531Z,9.72
2019-05-13T07:09:55.571Z,9.90
2019-05-13T07:10:52.600Z,10.06
2019-05-13T07:11:51.711Z,10.31
2019-05-13T07:12:46.565Z,10.89
2019-05-13T07:13:43.617Z,12.05
2019-05-13T07:14:41.334Z,13.14
2019-05-13T07:15:37.588Z,14.10
2019-05-13T07:16:34.622Z,14.94
2019-05-13T07:17:32.391Z,15.03
2019-05-13T07:18:28.698Z,15.34
2019-05-13T07:19:25.726Z,15.60
2019-05-13T07:20:22.936Z,15.38
2019-05-13T07:21:21.698Z,15.10
2019-05-13T07:22:16.776Z,14.94
2019-05-13T07:23:13.699Z,14.73
2019-05-13T07:24:12.750Z,14.67
2019-05-13T07:25:07.761Z,14.36
2019-05-13T07:26:04.699Z,13.80
2019-05-13T07:27:02.241Z,13.22
2019-05-13T07:27:58.755Z,12.75
2019-05-13T07:28:56.140Z,12.31
2019-05-13T07:29:55.516Z,12.03
2019-05-13T07:30:51.643Z,11.97
2019-05-13T07:31:46.738Z,11.82
2019-05-13T07:32:43.845Z,11.65
2019-05-13T07:33:42.650Z,11.47
2019-05-13T07:34:37.815Z,11.30
2019-05-13T07:35:37.913Z,11.27
2019-05-13T07:36:31.906Z,11.30
2019-05-13T07:37:28.824Z,11.28
2019-05-13T07:38:25.865Z,11.30
2019-05-13T07:39:22.944Z,11.43
2019-05-13T07:40:22.156Z,11.56
2019-05-13T07:41:31.233Z,11.52
2019-05-13T07:42:13.993Z,11.56
2019-05-13T07:43:12.322Z,11.68
2019-05-13T07:44:07.907Z,11.89
2019-05-13T07:45:04.988Z,12.09
2019-05-13T07:46:02.310Z,12.26
2019-05-13T07:46:58.913Z,12.18
2019-05-13T07:47:55.929Z,12.26
2019-05-13T07:48:53.010Z,12.43
2019-05-13T07:49:51.576Z,12.65
2019-05-13T07:50:59.411Z,12.80
2019-05-13T07:51:43.986Z,12.97
2019-05-13T07:52:42.154Z,13.10
2019-05-13T07:53:38.055Z,13.25
2019-05-13T07:54:35.030Z,13.26
2019-05-13T07:55:32.092Z,13.21
2019-05-13T07:56:29.083Z,13.05
2019-05-13T07:57:26.038Z,13.03
2019-05-13T07:58:23.267Z,13.31
2019-05-13T07:59:21.139Z,13.60
2019-05-13T08:00:17.153Z,13.96
2019-05-13T08:01:14.152Z,14.06
2019-05-13T08:02:12.435Z,13.98
2019-05-13T08:03:08.125Z,14.11
2019-05-13T08:04:05.083Z,14.48
2019-05-13T08:05:02.599Z,14.65
2019-05-13T08:06:01.766Z,14.72
2019-05-13T08:06:56.188Z,14.77
2019-05-13T08:07:53.111Z,14.97
2019-05-13T08:08:52.290Z,15.38
2019-05-13T08:09:47.242Z,15.76
2019-05-13T08:10:44.317Z,16.22
2019-05-13T08:12:00.203Z,16.54
2019-05-13T08:12:38.354Z,16.87
2019-05-13T08:13:35.273Z,17.01
2019-05-13T08:14:32.483Z,17.01
2019-05-13T08:15:31.508Z,16.76
2019-05-13T08:16:26.330Z,16.81
2019-05-13T08:17:23.328Z,16.80
2019-05-13T08:18:22.183Z,16.78
2019-05-13T08:19:17.460Z,17.00
2019-05-13T08:20:14.344Z,16.89
2019-05-13T08:21:12.379Z,17.03
2019-05-13T08:22:08.312Z,17.07
2019-05-13T08:23:05.306Z,17.04
2019-05-13T08:24:02.962Z,16.86
2019-05-13T08:25:01.710Z,16.81
2019-05-13T08:25:56.323Z,16.84
2019-05-13T08:26:53.483Z,16.72
2019-05-13T08:27:51.468Z,16.65
2019-05-13T08:28:57.981Z,16.62
2019-05-13T08:29:44.474Z,16.63
2019-05-13T08:30:42.628Z,16.76
2019-05-13T08:31:41.081Z,16.84
2019-05-13T08:32:35.510Z,16.85
2019-05-13T08:33:32.516Z,16.93
2019-05-13T08:34:32.578Z,17.31
2019-05-13T08:35:26.534Z,17.69
2019-05-13T08:36:23.636Z,18.14
2019-05-13T08:37:21.665Z,18.43
2019-05-13T08:38:17.577Z,18.69
2019-05-13T08:39:14.525Z,18.93
2019-05-13T08:40:12.203Z,18.87
2019-05-13T08:41:09.825Z,18.76
2019-05-13T08:42:15.113Z,19.48
2019-05-13T08:43:02.618Z,20.20
2019-05-13T08:44:01.762Z,20.89
2019-05-13T08:44:56.708Z,21.55
2019-05-13T08:45:55.695Z,21.79
2019-05-13T08:46:51.891Z,22.01
2019-05-13T08:47:47.784Z,22.59
2019-05-13T08:48:44.703Z,22.92
2019-05-13T08:49:41.738Z,23.46
2019-05-13T08:50:41.609Z,23.92
2019-05-13T08:51:35.710Z,24.29
2019-05-13T08:52:32.731Z,24.45
2019-05-13T08:53:31.737Z,24.57
2019-05-13T08:54:26.698Z,24.54
2019-05-13T08:55:23.800Z,23.90
2019-05-13T08:56:21.773Z,23.14
2019-05-13T08:57:17.735Z,23.45
2019-05-13T08:58:14.745Z,23.70
2019-05-13T08:59:11.838Z,23.75
2019-05-13T09:00:08.888Z,23.61
2019-05-13T09:01:05.782Z,23.56
2019-05-13T09:02:03.393Z,23.48
2019-05-13T09:03:01.731Z,23.40
2019-05-13T09:03:56.836Z,23.55
2019-05-13T09:04:53.860Z,23.94
2019-05-13T09:05:52.187Z,23.79
2019-05-13T09:06:47.998Z,24.54
2019-05-13T09:07:44.831Z,25.40
2019-05-13T09:08:42.557Z,25.70
2019-05-13T09:09:38.951Z,25.07
2019-05-13T09:10:36.012Z,24.78
2019-05-13T09:11:32.937Z,24.79
2019-05-13T09:12:35.721Z,24.64
2019-05-13T09:13:26.938Z,24.87
2019-05-13T09:14:23.973Z,25.04
2019-05-13T09:15:22.399Z,24.65
2019-05-13T09:16:18.054Z,24.45
2019-05-13T09:17:14.995Z,24.63
2019-05-13T09:18:11.963Z,25.00
2019-05-13T09:19:15.181Z,25.12
2019-05-13T09:20:06.051Z,24.67
2019-05-13T09:21:03.177Z,24.22
2019-05-13T09:22:03.106Z,24.10
2019-05-13T09:22:57.047Z,24.37
2019-05-13T09:23:54.051Z,24.72
2019-05-13T09:24:53.038Z,25.00
2019-05-13T09:25:48.173Z,25.06
2019-05-13T09:26:45.151Z,25.07
2019-05-13T09:27:42.596Z,24.87
2019-05-13T09:28:41.564Z,24.40
2019-05-13T09:29:36.219Z,24.56
2019-05-13T09:30:33.110Z,24.18
2019-05-13T09:31:32.382Z,24.36
2019-05-13T09:32:27.192Z,24.79
2019-05-13T09:33:24.532Z,25.09
2019-05-13T09:34:22.146Z,24.61
2019-05-13T09:35:18.246Z,24.52
2019-05-13T09:36:15.279Z,24.93
2019-05-13T09:37:12.300Z,25.10
2019-05-13T09:38:09.299Z,24.28
2019-05-13T09:39:06.294Z,23.87
2019-05-13T09:40:03.327Z,24.12
2019-05-13T09:41:01.887Z,24.28
2019-05-13T09:41:57.346Z,24.44
2019-05-13T09:42:55.324Z,24.35
2019-05-13T09:43:51.529Z,24.22
2019-05-13T09:44:48.271Z,24.35
2019-05-13T09:45:45.299Z,23.87
2019-05-13T09:46:42.737Z,23.56
2019-05-13T09:47:41.826Z,23.63
2019-05-13T09:48:36.345Z,22.87
2019-05-13T09:49:33.425Z,22.46
2019-05-13T09:50:35.373Z,22.38
2019-05-13T09:51:27.414Z,22.21
2019-05-13T09:52:24.461Z,22.44
2019-05-13T09:53:22.260Z,22.42
2019-05-13T09:54:18.479Z,22.18
2019-05-13T09:55:26.554Z,21.62
2019-05-13T09:56:12.453Z,21.75
2019-05-13T09:57:11.913Z,21.40
2019-05-13T09:58:06.481Z,21.12
2019-05-13T09:59:03.441Z,21.12
2019-05-13T10:00:01.801Z,21.19
2019-05-13T10:00:57.595Z,20.89
2019-05-13T10:01:55.118Z,20.54
2019-05-13T10:02:51.754Z,20.29
2019-05-13T10:03:54.750Z,19.97
2019-05-13T10:04:45.633Z,19.76
2019-05-13T10:05:42.623Z,19.75
2019-05-13T10:06:42.136Z,20.04
2019-05-13T10:07:36.606Z,19.72
2019-05-13T10:08:33.551Z,19.37
2019-05-13T10:09:32.616Z,19.35
2019-05-13T10:10:27.607Z,19.27
2019-05-13T10:11:24.690Z,19.05
2019-05-13T10:12:24.305Z,18.92
2019-05-13T10:13:18.746Z,18.96
2019-05-13T10:14:15.695Z,19.06
2019-05-13T10:15:12.916Z,19.21
2019-05-13T10:16:12.237Z,19.23
2019-05-13T10:17:06.850Z,19.22
2019-05-13T10:18:03.662Z,19.04
2019-05-13T10:19:01.584Z,18.93
2019-05-13T10:19:57.731Z,18.51
2019-05-13T10:20:58.374Z,18.12
2019-05-13T10:21:52.492Z,17.76
2019-05-13T10:22:48.686Z,17.79
2019-05-13T10:23:45.876Z,17.96
2019-05-13T10:24:42.784Z,18.03
2019-05-13T10:25:39.794Z,18.05
2019-05-13T10:26:36.832Z,17.72
2019-05-13T10:27:33.963Z,17.45
2019-05-13T10:28:31.948Z,17.37
2019-05-13T10:29:27.889Z,17.47
2019-05-13T10:30:24.901Z,17.45
2019-05-13T10:31:22.277Z,17.44
2019-05-13T10:32:18.857Z,17.37
2019-05-13T10:33:15.894Z,17.17
2019-05-13T10:34:14.034Z,17.12
2019-05-13T10:35:09.819Z,17.12
2019-05-13T10:36:06.902Z,17.26
2019-05-13T10:37:03.943Z,17.35
2019-05-13T10:38:04.386Z,17.54
2019-05-13T10:38:57.964Z,17.68
2019-05-13T10:39:54.951Z,17.62
2019-05-13T10:40:52.248Z,17.56
2019-05-13T10:41:48.998Z,17.45
2019-05-13T10:42:46.218Z,17.51
2019-05-13T10:43:44.223Z,17.45
2019-05-13T10:44:42.274Z,17.25
2019-05-13T10:45:37.090Z,17.04
2019-05-13T10:46:33.957Z,16.96
2019-05-13T10:47:31.050Z,16.98
2019-05-13T10:48:28.127Z,17.02
2019-05-13T10:49:25.066Z,17.17
2019-05-13T10:50:27.436Z,17.10
2019-05-13T10:51:19.090Z,17.06
2019-05-13T10:52:16.175Z,17.20
2019-05-13T10:53:13.109Z,17.29
2019-05-13T10:54:10.154Z,17.43
2019-05-13T10:55:07.139Z,17.46
2019-05-13T10:56:04.178Z,17.40
2019-05-13T10:57:03.953Z,17.34
2019-05-13T10:57:58.196Z,17.25
2019-05-13T10:58:55.181Z,17.20
2019-05-13T10:59:52.896Z,17.20
2019-05-13T11:00:51.705Z,17.36
2019-05-13T11:01:46.196Z,17.51
2019-05-13T11:02:43.279Z,17.54
2019-05-13T11:03:42.777Z,17.54
2019-05-13T11:04:37.275Z,17.59
2019-05-13T11:05:34.289Z,17.77
2019-05-13T11:06:32.538Z,17.64
2019-05-13T11:07:28.177Z,17.37
2019-05-13T11:08:25.207Z,17.26
2019-05-13T11:09:22.373Z,17.31
2019-05-13T11:10:21.883Z,17.31
2019-05-13T11:11:16.267Z,17.28
2019-05-13T11:12:13.303Z,17.11
2019-05-13T11:13:10.658Z,17.01
2019-05-13T11:14:11.389Z,17.14
2019-05-13T11:15:04.256Z,17.42
2019-05-13T11:16:02.428Z,17.61
2019-05-13T11:16:58.382Z,17.67
2019-05-13T11:17:55.323Z,17.61
2019-05-13T11:18:52.419Z,17.50
2019-05-13T11:19:49.449Z,17.62
2019-05-13T11:20:46.407Z,17.77
2019-05-13T11:21:44.500Z,17.71
2019-05-13T11:22:40.467Z,17.68
2019-05-13T11:23:37.395Z,17.61
2019-05-13T11:24:34.557Z,17.47
2019-05-13T11:25:32.356Z,17.43
2019-05-13T11:26:28.450Z,17.26
2019-05-13T11:27:25.496Z,17.15
2019-05-13T11:28:22.573Z,17.27
2019-05-13T11:29:19.455Z,17.22
2019-05-13T11:30:16.546Z,17.22
2019-05-13T11:31:13.536Z,17.36
2019-05-13T11:32:12.937Z,17.39
2019-05-13T11:33:10.165Z,17.51
2019-05-13T11:34:04.563Z,17.63
2019-05-13T11:35:02.103Z,17.60
2019-05-13T11:35:58.529Z,17.54
2019-05-13T11:36:55.523Z,17.44
2019-05-13T11:37:52.593Z,17.32
2019-05-13T11:38:49.781Z,17.40
2019-05-13T11:39:46.657Z,17.47
2019-05-13T11:40:43.581Z,17.45
2019-05-13T11:41:42.684Z,17.37
2019-05-13T11:42:37.539Z,17.35
2019-05-13T11:43:34.672Z,17.37
2019-05-13T11:44:32.337Z,17.44
2019-05-13T11:45:31.397Z,17.54
2019-05-13T11:46:25.580Z,17.70
2019-05-13T11:47:22.671Z,17.79
2019-05-13T11:48:19.756Z,17.80
2019-05-13T11:49:16.732Z,17.81
2019-05-13T11:50:13.720Z,17.69
2019-05-13T11:51:13.006Z,17.54
2019-05-13T11:52:07.750Z,17.48
2019-05-13T11:53:30.001Z,17.45
2019-05-13T11:54:02.401Z,17.39
2019-05-13T11:54:58.717Z,17.34
2019-05-13T11:55:55.769Z,17.48
2019-05-13T11:57:01.784Z,17.65
2019-05-13T11:57:52.449Z,17.75
2019-05-13T11:58:46.801Z,17.90
2019-05-13T11:59:43.715Z,18.20
2019-05-13T12:00:02.789Z,18.31
2019-05-13T12:01:01.784Z,18.54
2019-05-13T12:01:55.997Z,18.87
2019-05-13T12:02:54.673Z,19.31
2019-05-13T12:03:52.804Z,19.70
2019-05-13T12:04:47.112Z,19.96
2019-05-13T12:05:44.134Z,20.10
2019-05-13T12:06:47.893Z,19.85
2019-05-13T12:07:38.062Z,19.47
2019-05-13T12:08:35.100Z,19.12
2019-05-13T12:09:32.143Z,18.85
2019-05-13T12:10:32.459Z,18.64
2019-05-13T12:11:26.069Z,18.45
2019-05-13T12:12:30.145Z,18.32
2019-05-13T12:13:22.679Z,18.19
2019-05-13T12:14:42.500Z,18.10
2019-05-13T12:15:28.834Z,18.07
2019-05-13T12:16:12.839Z,18.11
2019-05-13T12:17:08.190Z,18.12
2019-05-13T12:18:05.165Z,18.15
2019-05-13T12:19:03.505Z,18.15
2019-05-13T12:19:59.198Z,18.12
2019-05-13T12:20:56.234Z,18.02
2019-05-13T12:21:54.173Z,17.90
2019-05-13T12:22:52.021Z,17.89
2019-05-13T12:23:47.247Z,17.90
2019-05-13T12:24:44.274Z,17.86
2019-05-13T12:25:43.714Z,17.90
2019-05-13T12:26:38.344Z,17.98
2019-05-13T12:27:35.294Z,18.04